sensor_id;sensor_type;location;lat;lon;timestamp;P1;durP1;ratioP1;P2;durP2;ratioP2
57313;SDS011;53202;50.976;18.216;2024-01-30T00:00:09;17.70;;;11.30;;
57313;SDS011;53202;50.976;18.216;2024-01-30T00:01:11;22.70;;;11.90;;
57313;SDS011;53202;50.976;18.216;2024-01-30T00:02:12;18.80;;;10.60;;
57313;SDS011;53202;50.976;18.216;2024-01-30T00:03:12;21.40;;;10.70;;
57313;SDS011;53202;50.976;18.216;2024-01-30T00:04:13;24.80;;;12.00;;
57313;SDS011;53202;50.976;18.216;2024-01-30T00:05:14;16.00;;;9.50;;
57313;SDS011;53202;50.976;18.216;2024-01-30T00:06:18;30.20;;;11.20;;
57313;SDS011;53202;50.976;18.216;2024-01-30T00:07:21;22.40;;;11.20;;
57313;SDS011;53202;50.976;18.216;2024-01-30T00:08:22;19.40;;;11.70;;
57313;SDS011;53202;50.976;18.216;2024-01-30T00:09:23;23.50;;;13.40;;
57313;SDS011;53202;50.976;18.216;2024-01-30T00:10:24;24.90;;;11.80;;
57313;SDS011;53202;50.976;18.216;2024-01-30T00:11:25;21.00;;;11.40;;
57313;SDS011;53202;50.976;18.216;2024-01-30T00:12:26;24.50;;;12.70;;
57313;SDS011;53202;50.976;18.216;2024-01-30T00:13:27;23.20;;;11.60;;
57313;SDS011;53202;50.976;18.216;2024-01-30T00:14:28;20.30;;;12.20;;
57313;SDS011;53202;50.976;18.216;2024-01-30T00:15:29;19.40;;;10.80;;
57313;SDS011;53202;50.976;18.216;2024-01-30T00:16:30;29.20;;;11.80;;
57313;SDS011;53202;50.976;18.216;2024-01-30T00:17:31;16.20;;;10.30;;
57313;SDS011;53202;50.976;18.216;2024-01-30T00:18:32;27.00;;;12.10;;
57313;SDS011;53202;50.976;18.216;2024-01-30T00:19:33;22.70;;;12.00;;
57313;SDS011;53202;50.976;18.216;2024-01-30T00:20:34;24.60;;;11.60;;
57313;SDS011;53202;50.976;18.216;2024-01-30T00:21:35;23.10;;;12.40;;
57313;SDS011;53202;50.976;18.216;2024-01-30T00:22:36;21.70;;;11.90;;
57313;SDS011;53202;50.976;18.216;2024-01-30T00:23:37;24.80;;;12.10;;
57313;SDS011;53202;50.976;18.216;2024-01-30T00:24:38;42.80;;;12.40;;
57313;SDS011;53202;50.976;18.216;2024-01-30T00:25:39;23.30;;;11.30;;
57313;SDS011;53202;50.976;18.216;2024-01-30T00:26:40;22.00;;;12.30;;
57313;SDS011;53202;50.976;18.216;2024-01-30T00:27:41;25.20;;;11.70;;
57313;SDS011;53202;50.976;18.216;2024-01-30T00:28:42;28.30;;;12.30;;
57313;SDS011;53202;50.976;18.216;2024-01-30T00:29:43;24.20;;;11.90;;
57313;SDS011;53202;50.976;18.216;2024-01-30T00:30:43;24.50;;;11.20;;
57313;SDS011;53202;50.976;18.216;2024-01-30T00:31:45;21.60;;;11.10;;
57313;SDS011;53202;50.976;18.216;2024-01-30T00:32:46;20.90;;;11.60;;
57313;SDS011;53202;50.976;18.216;2024-01-30T00:33:47;22.50;;;11.20;;
57313;SDS011;53202;50.976;18.216;2024-01-30T00:34:48;19.10;;;11.70;;
57313;SDS011;53202;50.976;18.216;2024-01-30T00:35:49;21.30;;;11.10;;
57313;SDS011;53202;50.976;18.216;2024-01-30T00:36:50;20.70;;;11.50;;
57313;SDS011;53202;50.976;18.216;2024-01-30T00:37:51;28.60;;;11.90;;
57313;SDS011;53202;50.976;18.216;2024-01-30T00:38:52;19.40;;;9.80;;
57313;SDS011;53202;50.976;18.216;2024-01-30T00:39:52;31.30;;;11.40;;
57313;SDS011;53202;50.976;18.216;2024-01-30T00:40:54;27.10;;;10.90;;
57313;SDS011;53202;50.976;18.216;2024-01-30T00:41:55;22.80;;;11.80;;
57313;SDS011;53202;50.976;18.216;2024-01-30T00:42:55;19.20;;;11.00;;
57313;SDS011;53202;50.976;18.216;2024-01-30T00:43:56;20.30;;;11.40;;
57313;SDS011;53202;50.976;18.216;2024-01-30T00:44:57;22.10;;;12.10;;
57313;SDS011;53202;50.976;18.216;2024-01-30T00:45:59;18.00;;;10.30;;
57313;SDS011;53202;50.976;18.216;2024-01-30T00:47:00;24.50;;;10.60;;
57313;SDS011;53202;50.976;18.216;2024-01-30T00:48:01;19.60;;;10.00;;
57313;SDS011;53202;50.976;18.216;2024-01-30T00:49:01;25.20;;;12.00;;
57313;SDS011;53202;50.976;18.216;2024-01-30T00:50:03;16.90;;;9.40;;
57313;SDS011;53202;50.976;18.216;2024-01-30T00:51:04;20.00;;;10.20;;
57313;SDS011;53202;50.976;18.216;2024-01-30T00:52:05;18.50;;;9.90;;
57313;SDS011;53202;50.976;18.216;2024-01-30T00:53:06;22.90;;;10.30;;
57313;SDS011;53202;50.976;18.216;2024-01-30T00:54:07;18.60;;;9.50;;
57313;SDS011;53202;50.976;18.216;2024-01-30T00:55:08;19.10;;;9.90;;
57313;SDS011;53202;50.976;18.216;2024-01-30T00:56:09;24.00;;;11.00;;
57313;SDS011;53202;50.976;18.216;2024-01-30T00:57:10;20.30;;;9.80;;
57313;SDS011;53202;50.976;18.216;2024-01-30T00:58:11;23.40;;;10.60;;
57313;SDS011;53202;50.976;18.216;2024-01-30T00:59:12;17.60;;;9.70;;
57313;SDS011;53202;50.976;18.216;2024-01-30T01:00:13;16.00;;;9.10;;
57313;SDS011;53202;50.976;18.216;2024-01-30T01:01:17;20.90;;;10.20;;
57313;SDS011;53202;50.976;18.216;2024-01-30T01:02:18;24.00;;;9.80;;
57313;SDS011;53202;50.976;18.216;2024-01-30T01:03:19;19.40;;;8.90;;
57313;SDS011;53202;50.976;18.216;2024-01-30T01:04:20;20.60;;;10.70;;
57313;SDS011;53202;50.976;18.216;2024-01-30T01:05:21;23.30;;;10.90;;
57313;SDS011;53202;50.976;18.216;2024-01-30T01:06:22;20.90;;;9.60;;
57313;SDS011;53202;50.976;18.216;2024-01-30T01:07:23;25.50;;;10.00;;
57313;SDS011;53202;50.976;18.216;2024-01-30T01:08:24;18.40;;;10.30;;
57313;SDS011;53202;50.976;18.216;2024-01-30T01:09:25;17.60;;;9.10;;
57313;SDS011;53202;50.976;18.216;2024-01-30T01:10:26;15.90;;;10.00;;
57313;SDS011;53202;50.976;18.216;2024-01-30T01:11:28;25.80;;;11.20;;
57313;SDS011;53202;50.976;18.216;2024-01-30T01:12:29;31.90;;;12.40;;
57313;SDS011;53202;50.976;18.216;2024-01-30T01:13:30;24.20;;;12.00;;
57313;SDS011;53202;50.976;18.216;2024-01-30T01:14:31;25.40;;;12.00;;
57313;SDS011;53202;50.976;18.216;2024-01-30T01:15:32;25.30;;;12.50;;
57313;SDS011;53202;50.976;18.216;2024-01-30T01:16:33;30.60;;;11.30;;
57313;SDS011;53202;50.976;18.216;2024-01-30T01:17:34;22.80;;;10.50;;
57313;SDS011;53202;50.976;18.216;2024-01-30T01:18:35;25.50;;;12.60;;
57313;SDS011;53202;50.976;18.216;2024-01-30T01:19:36;22.60;;;11.90;;
57313;SDS011;53202;50.976;18.216;2024-01-30T01:20:37;25.00;;;11.60;;
57313;SDS011;53202;50.976;18.216;2024-01-30T01:21:38;24.70;;;11.10;;
57313;SDS011;53202;50.976;18.216;2024-01-30T01:22:39;28.60;;;10.90;;
57313;SDS011;53202;50.976;18.216;2024-01-30T01:23:40;21.80;;;10.60;;
57313;SDS011;53202;50.976;18.216;2024-01-30T01:24:41;21.90;;;11.30;;
57313;SDS011;53202;50.976;18.216;2024-01-30T01:25:42;22.80;;;10.30;;
57313;SDS011;53202;50.976;18.216;2024-01-30T01:26:43;23.10;;;11.20;;
57313;SDS011;53202;50.976;18.216;2024-01-30T01:27:44;22.30;;;11.20;;
57313;SDS011;53202;50.976;18.216;2024-01-30T01:28:51;16.00;;;9.30;;
57313;SDS011;53202;50.976;18.216;2024-01-30T01:29:52;22.70;;;10.80;;
57313;SDS011;53202;50.976;18.216;2024-01-30T01:30:54;17.80;;;10.40;;
57313;SDS011;53202;50.976;18.216;2024-01-30T01:31:59;22.40;;;10.40;;
57313;SDS011;53202;50.976;18.216;2024-01-30T01:33:00;19.70;;;10.30;;
57313;SDS011;53202;50.976;18.216;2024-01-30T01:34:02;21.70;;;9.90;;
57313;SDS011;53202;50.976;18.216;2024-01-30T01:35:03;21.10;;;10.30;;
57313;SDS011;53202;50.976;18.216;2024-01-30T01:36:05;19.90;;;9.00;;
57313;SDS011;53202;50.976;18.216;2024-01-30T01:37:07;24.30;;;9.80;;
57313;SDS011;53202;50.976;18.216;2024-01-30T01:38:08;21.90;;;10.30;;
57313;SDS011;53202;50.976;18.216;2024-01-30T01:39:09;24.20;;;10.10;;
57313;SDS011;53202;50.976;18.216;2024-01-30T01:40:11;19.50;;;10.90;;
57313;SDS011;53202;50.976;18.216;2024-01-30T01:41:12;21.40;;;10.70;;
57313;SDS011;53202;50.976;18.216;2024-01-30T01:42:12;14.70;;;9.40;;
57313;SDS011;53202;50.976;18.216;2024-01-30T01:43:14;18.90;;;9.90;;
57313;SDS011;53202;50.976;18.216;2024-01-30T01:44:15;27.60;;;10.30;;
57313;SDS011;53202;50.976;18.216;2024-01-30T01:45:15;17.30;;;10.30;;
57313;SDS011;53202;50.976;18.216;2024-01-30T01:46:17;21.70;;;10.10;;
57313;SDS011;53202;50.976;18.216;2024-01-30T01:47:18;19.80;;;8.90;;
57313;SDS011;53202;50.976;18.216;2024-01-30T01:48:19;22.30;;;10.30;;
57313;SDS011;53202;50.976;18.216;2024-01-30T01:49:22;16.70;;;9.20;;
57313;SDS011;53202;50.976;18.216;2024-01-30T01:50:25;24.90;;;10.90;;
57313;SDS011;53202;50.976;18.216;2024-01-30T01:51:27;27.70;;;11.40;;
57313;SDS011;53202;50.976;18.216;2024-01-30T01:52:28;22.50;;;10.50;;
57313;SDS011;53202;50.976;18.216;2024-01-30T01:53:29;18.30;;;9.80;;
57313;SDS011;53202;50.976;18.216;2024-01-30T01:54:30;22.20;;;10.90;;
57313;SDS011;53202;50.976;18.216;2024-01-30T01:55:31;21.80;;;9.80;;
57313;SDS011;53202;50.976;18.216;2024-01-30T01:56:33;18.90;;;11.50;;
57313;SDS011;53202;50.976;18.216;2024-01-30T01:57:34;19.20;;;11.20;;
57313;SDS011;53202;50.976;18.216;2024-01-30T01:58:35;25.20;;;11.00;;
57313;SDS011;53202;50.976;18.216;2024-01-30T01:59:36;19.40;;;10.50;;
57313;SDS011;53202;50.976;18.216;2024-01-30T02:00:37;28.60;;;11.70;;
57313;SDS011;53202;50.976;18.216;2024-01-30T02:01:41;21.70;;;11.70;;
57313;SDS011;53202;50.976;18.216;2024-01-30T02:02:43;20.70;;;11.20;;
57313;SDS011;53202;50.976;18.216;2024-01-30T02:03:44;25.60;;;11.90;;
57313;SDS011;53202;50.976;18.216;2024-01-30T02:04:46;22.20;;;11.40;;
57313;SDS011;53202;50.976;18.216;2024-01-30T02:05:47;21.30;;;10.40;;
57313;SDS011;53202;50.976;18.216;2024-01-30T02:06:48;21.40;;;10.70;;
57313;SDS011;53202;50.976;18.216;2024-01-30T02:07:49;22.00;;;11.40;;
57313;SDS011;53202;50.976;18.216;2024-01-30T02:08:51;22.00;;;11.60;;
57313;SDS011;53202;50.976;18.216;2024-01-30T02:09:51;25.10;;;11.00;;
57313;SDS011;53202;50.976;18.216;2024-01-30T02:10:52;16.40;;;10.10;;
57313;SDS011;53202;50.976;18.216;2024-01-30T02:11:53;20.50;;;10.90;;
57313;SDS011;53202;50.976;18.216;2024-01-30T02:12:55;19.80;;;10.30;;
57313;SDS011;53202;50.976;18.216;2024-01-30T02:13:56;27.50;;;10.90;;
57313;SDS011;53202;50.976;18.216;2024-01-30T02:14:57;20.90;;;10.90;;
57313;SDS011;53202;50.976;18.216;2024-01-30T02:15:58;18.10;;;10.20;;
57313;SDS011;53202;50.976;18.216;2024-01-30T02:16:59;26.80;;;12.00;;
57313;SDS011;53202;50.976;18.216;2024-01-30T02:18:00;15.10;;;9.60;;
57313;SDS011;53202;50.976;18.216;2024-01-30T02:19:01;21.60;;;10.70;;
57313;SDS011;53202;50.976;18.216;2024-01-30T02:20:02;20.80;;;10.90;;
57313;SDS011;53202;50.976;18.216;2024-01-30T02:21:04;18.70;;;10.00;;
57313;SDS011;53202;50.976;18.216;2024-01-30T02:22:05;19.70;;;11.40;;
57313;SDS011;53202;50.976;18.216;2024-01-30T02:23:06;17.60;;;10.40;;
57313;SDS011;53202;50.976;18.216;2024-01-30T02:24:08;20.10;;;11.30;;
57313;SDS011;53202;50.976;18.216;2024-01-30T02:25:08;23.50;;;13.40;;
57313;SDS011;53202;50.976;18.216;2024-01-30T02:26:10;27.60;;;11.20;;
57313;SDS011;53202;50.976;18.216;2024-01-30T02:27:12;23.50;;;12.10;;
57313;SDS011;53202;50.976;18.216;2024-01-30T02:28:13;23.60;;;12.20;;
57313;SDS011;53202;50.976;18.216;2024-01-30T02:29:14;23.50;;;11.30;;
57313;SDS011;53202;50.976;18.216;2024-01-30T02:30:15;29.40;;;11.20;;
57313;SDS011;53202;50.976;18.216;2024-01-30T02:31:16;18.50;;;11.50;;
57313;SDS011;53202;50.976;18.216;2024-01-30T02:32:17;19.70;;;11.00;;
57313;SDS011;53202;50.976;18.216;2024-01-30T02:33:18;26.10;;;11.80;;
57313;SDS011;53202;50.976;18.216;2024-01-30T02:34:19;32.30;;;13.00;;
57313;SDS011;53202;50.976;18.216;2024-01-30T02:35:21;23.40;;;12.10;;
57313;SDS011;53202;50.976;18.216;2024-01-30T02:36:22;24.60;;;12.10;;
57313;SDS011;53202;50.976;18.216;2024-01-30T02:37:23;25.60;;;10.90;;
57313;SDS011;53202;50.976;18.216;2024-01-30T02:38:24;19.80;;;11.70;;
57313;SDS011;53202;50.976;18.216;2024-01-30T02:39:27;20.80;;;10.80;;
57313;SDS011;53202;50.976;18.216;2024-01-30T02:40:28;26.10;;;12.10;;
57313;SDS011;53202;50.976;18.216;2024-01-30T02:41:28;17.00;;;10.30;;
57313;SDS011;53202;50.976;18.216;2024-01-30T02:42:29;20.60;;;11.30;;
57313;SDS011;53202;50.976;18.216;2024-01-30T02:43:30;21.60;;;12.30;;
57313;SDS011;53202;50.976;18.216;2024-01-30T02:44:31;17.20;;;11.00;;
57313;SDS011;53202;50.976;18.216;2024-01-30T02:45:32;22.10;;;12.20;;
57313;SDS011;53202;50.976;18.216;2024-01-30T02:46:33;20.90;;;10.60;;
57313;SDS011;53202;50.976;18.216;2024-01-30T02:47:34;18.20;;;10.60;;
57313;SDS011;53202;50.976;18.216;2024-01-30T02:48:35;19.90;;;11.50;;
57313;SDS011;53202;50.976;18.216;2024-01-30T02:49:35;21.20;;;11.70;;
57313;SDS011;53202;50.976;18.216;2024-01-30T02:50:36;23.70;;;12.60;;
57313;SDS011;53202;50.976;18.216;2024-01-30T02:51:37;33.70;;;14.40;;
57313;SDS011;53202;50.976;18.216;2024-01-30T02:52:38;27.30;;;14.40;;
57313;SDS011;53202;50.976;18.216;2024-01-30T02:53:39;29.50;;;13.80;;
57313;SDS011;53202;50.976;18.216;2024-01-30T02:54:40;27.90;;;14.30;;
57313;SDS011;53202;50.976;18.216;2024-01-30T02:55:41;28.20;;;13.60;;
57313;SDS011;53202;50.976;18.216;2024-01-30T02:56:42;22.00;;;13.80;;
57313;SDS011;53202;50.976;18.216;2024-01-30T02:57:43;20.10;;;12.90;;
57313;SDS011;53202;50.976;18.216;2024-01-30T02:58:44;21.40;;;12.80;;
57313;SDS011;53202;50.976;18.216;2024-01-30T02:59:45;21.30;;;13.20;;
57313;SDS011;53202;50.976;18.216;2024-01-30T03:00:46;28.00;;;12.10;;
57313;SDS011;53202;50.976;18.216;2024-01-30T03:01:47;25.10;;;12.10;;
57313;SDS011;53202;50.976;18.216;2024-01-30T03:02:48;31.60;;;13.10;;
57313;SDS011;53202;50.976;18.216;2024-01-30T03:03:49;27.40;;;13.50;;
57313;SDS011;53202;50.976;18.216;2024-01-30T03:04:50;20.20;;;12.60;;
57313;SDS011;53202;50.976;18.216;2024-01-30T03:05:50;21.10;;;13.00;;
57313;SDS011;53202;50.976;18.216;2024-01-30T03:06:51;22.00;;;12.30;;
57313;SDS011;53202;50.976;18.216;2024-01-30T03:07:53;21.90;;;12.00;;
57313;SDS011;53202;50.976;18.216;2024-01-30T03:08:54;24.70;;;12.40;;
57313;SDS011;53202;50.976;18.216;2024-01-30T03:09:55;24.70;;;13.00;;
57313;SDS011;53202;50.976;18.216;2024-01-30T03:10:56;20.60;;;13.00;;
57313;SDS011;53202;50.976;18.216;2024-01-30T03:11:57;19.90;;;12.70;;
57313;SDS011;53202;50.976;18.216;2024-01-30T03:12:58;30.40;;;14.40;;
57313;SDS011;53202;50.976;18.216;2024-01-30T03:13:58;20.10;;;12.30;;
57313;SDS011;53202;50.976;18.216;2024-01-30T03:14:59;21.20;;;13.00;;
57313;SDS011;53202;50.976;18.216;2024-01-30T03:16:00;23.40;;;14.30;;
57313;SDS011;53202;50.976;18.216;2024-01-30T03:17:01;25.90;;;12.80;;
57313;SDS011;53202;50.976;18.216;2024-01-30T03:18:03;20.90;;;12.30;;
57313;SDS011;53202;50.976;18.216;2024-01-30T03:19:06;21.30;;;12.70;;
57313;SDS011;53202;50.976;18.216;2024-01-30T03:20:09;24.60;;;12.40;;
57313;SDS011;53202;50.976;18.216;2024-01-30T03:21:10;23.30;;;13.10;;
57313;SDS011;53202;50.976;18.216;2024-01-30T03:22:11;22.60;;;13.30;;
57313;SDS011;53202;50.976;18.216;2024-01-30T03:23:12;17.30;;;11.70;;
57313;SDS011;53202;50.976;18.216;2024-01-30T03:24:13;28.50;;;14.30;;
57313;SDS011;53202;50.976;18.216;2024-01-30T03:25:14;19.30;;;13.80;;
57313;SDS011;53202;50.976;18.216;2024-01-30T03:26:15;20.70;;;13.20;;
57313;SDS011;53202;50.976;18.216;2024-01-30T03:27:16;22.00;;;13.60;;
57313;SDS011;53202;50.976;18.216;2024-01-30T03:28:17;24.20;;;12.80;;
57313;SDS011;53202;50.976;18.216;2024-01-30T03:29:18;26.90;;;14.60;;
57313;SDS011;53202;50.976;18.216;2024-01-30T03:30:19;25.50;;;16.20;;
57313;SDS011;53202;50.976;18.216;2024-01-30T03:31:20;27.20;;;16.70;;
57313;SDS011;53202;50.976;18.216;2024-01-30T03:32:21;40.60;;;16.80;;
57313;SDS011;53202;50.976;18.216;2024-01-30T03:33:22;32.10;;;18.30;;
57313;SDS011;53202;50.976;18.216;2024-01-30T03:34:23;42.80;;;19.20;;
57313;SDS011;53202;50.976;18.216;2024-01-30T03:35:24;31.50;;;18.30;;
57313;SDS011;53202;50.976;18.216;2024-01-30T03:36:25;37.20;;;19.00;;
57313;SDS011;53202;50.976;18.216;2024-01-30T03:37:26;39.70;;;20.10;;
57313;SDS011;53202;50.976;18.216;2024-01-30T03:38:26;36.80;;;19.50;;
57313;SDS011;53202;50.976;18.216;2024-01-30T03:39:27;38.00;;;18.40;;
57313;SDS011;53202;50.976;18.216;2024-01-30T03:40:28;36.40;;;17.50;;
57313;SDS011;53202;50.976;18.216;2024-01-30T03:41:29;32.50;;;17.80;;
57313;SDS011;53202;50.976;18.216;2024-01-30T03:42:30;35.00;;;19.10;;
57313;SDS011;53202;50.976;18.216;2024-01-30T03:43:31;36.70;;;19.80;;
57313;SDS011;53202;50.976;18.216;2024-01-30T03:44:32;41.00;;;18.40;;
57313;SDS011;53202;50.976;18.216;2024-01-30T03:45:34;35.90;;;17.50;;
57313;SDS011;53202;50.976;18.216;2024-01-30T03:46:34;35.10;;;17.20;;
57313;SDS011;53202;50.976;18.216;2024-01-30T03:47:36;33.30;;;17.90;;
57313;SDS011;53202;50.976;18.216;2024-01-30T03:48:37;37.20;;;17.50;;
57313;SDS011;53202;50.976;18.216;2024-01-30T03:49:38;34.00;;;15.20;;
57313;SDS011;53202;50.976;18.216;2024-01-30T03:50:38;35.80;;;18.20;;
57313;SDS011;53202;50.976;18.216;2024-01-30T03:51:39;35.10;;;17.90;;
57313;SDS011;53202;50.976;18.216;2024-01-30T03:52:40;39.80;;;17.40;;
57313;SDS011;53202;50.976;18.216;2024-01-30T03:53:42;45.10;;;18.70;;
57313;SDS011;53202;50.976;18.216;2024-01-30T03:54:43;45.10;;;21.30;;
57313;SDS011;53202;50.976;18.216;2024-01-30T03:55:44;40.00;;;18.60;;
57313;SDS011;53202;50.976;18.216;2024-01-30T03:56:45;39.50;;;18.90;;
57313;SDS011;53202;50.976;18.216;2024-01-30T03:57:46;42.90;;;19.40;;
57313;SDS011;53202;50.976;18.216;2024-01-30T03:58:47;35.30;;;16.10;;
57313;SDS011;53202;50.976;18.216;2024-01-30T03:59:48;27.10;;;16.00;;
57313;SDS011;53202;50.976;18.216;2024-01-30T04:00:48;30.50;;;15.00;;
57313;SDS011;53202;50.976;18.216;2024-01-30T04:01:50;29.30;;;15.40;;
57313;SDS011;53202;50.976;18.216;2024-01-30T04:02:51;24.40;;;14.90;;
57313;SDS011;53202;50.976;18.216;2024-01-30T04:03:52;31.90;;;16.10;;
57313;SDS011;53202;50.976;18.216;2024-01-30T04:04:53;21.80;;;13.10;;
57313;SDS011;53202;50.976;18.216;2024-01-30T04:05:54;26.70;;;14.80;;
57313;SDS011;53202;50.976;18.216;2024-01-30T04:06:55;25.30;;;12.40;;
57313;SDS011;53202;50.976;18.216;2024-01-30T04:07:56;33.30;;;14.10;;
57313;SDS011;53202;50.976;18.216;2024-01-30T04:08:57;26.80;;;13.90;;
57313;SDS011;53202;50.976;18.216;2024-01-30T04:09:58;28.10;;;14.00;;
57313;SDS011;53202;50.976;18.216;2024-01-30T04:11:03;24.10;;;13.20;;
57313;SDS011;53202;50.976;18.216;2024-01-30T04:12:06;26.90;;;13.30;;
57313;SDS011;53202;50.976;18.216;2024-01-30T04:13:07;37.90;;;13.00;;
57313;SDS011;53202;50.976;18.216;2024-01-30T04:14:08;29.10;;;15.10;;
57313;SDS011;53202;50.976;18.216;2024-01-30T04:15:09;27.80;;;14.90;;
57313;SDS011;53202;50.976;18.216;2024-01-30T04:16:18;25.10;;;14.10;;
57313;SDS011;53202;50.976;18.216;2024-01-30T04:17:21;31.70;;;13.80;;
57313;SDS011;53202;50.976;18.216;2024-01-30T04:18:22;31.60;;;16.60;;
57313;SDS011;53202;50.976;18.216;2024-01-30T04:19:23;30.60;;;12.70;;
57313;SDS011;53202;50.976;18.216;2024-01-30T04:20:25;30.20;;;13.80;;
57313;SDS011;53202;50.976;18.216;2024-01-30T04:21:26;30.60;;;14.90;;
57313;SDS011;53202;50.976;18.216;2024-01-30T04:22:27;26.70;;;14.90;;
57313;SDS011;53202;50.976;18.216;2024-01-30T04:23:28;31.80;;;15.20;;
57313;SDS011;53202;50.976;18.216;2024-01-30T04:24:29;33.80;;;15.90;;
57313;SDS011;53202;50.976;18.216;2024-01-30T04:25:29;30.80;;;16.20;;
57313;SDS011;53202;50.976;18.216;2024-01-30T04:26:30;27.60;;;15.30;;
57313;SDS011;53202;50.976;18.216;2024-01-30T04:27:31;37.30;;;17.20;;
57313;SDS011;53202;50.976;18.216;2024-01-30T04:28:32;35.90;;;16.50;;
57313;SDS011;53202;50.976;18.216;2024-01-30T04:29:33;41.40;;;17.00;;
57313;SDS011;53202;50.976;18.216;2024-01-30T04:30:34;26.40;;;14.50;;
57313;SDS011;53202;50.976;18.216;2024-01-30T04:31:36;31.90;;;14.40;;
57313;SDS011;53202;50.976;18.216;2024-01-30T04:32:37;28.10;;;16.00;;
57313;SDS011;53202;50.976;18.216;2024-01-30T04:33:38;25.80;;;15.70;;
57313;SDS011;53202;50.976;18.216;2024-01-30T04:34:39;31.60;;;14.10;;
57313;SDS011;53202;50.976;18.216;2024-01-30T04:35:40;25.20;;;14.80;;
57313;SDS011;53202;50.976;18.216;2024-01-30T04:36:43;30.60;;;16.80;;
57313;SDS011;53202;50.976;18.216;2024-01-30T04:37:45;31.00;;;16.00;;
57313;SDS011;53202;50.976;18.216;2024-01-30T04:38:46;25.00;;;15.20;;
57313;SDS011;53202;50.976;18.216;2024-01-30T04:39:47;28.50;;;16.60;;
57313;SDS011;53202;50.976;18.216;2024-01-30T04:40:48;22.80;;;14.00;;
57313;SDS011;53202;50.976;18.216;2024-01-30T04:41:49;30.10;;;16.80;;
57313;SDS011;53202;50.976;18.216;2024-01-30T04:42:50;23.40;;;14.10;;
57313;SDS011;53202;50.976;18.216;2024-01-30T04:43:51;27.70;;;15.80;;
57313;SDS011;53202;50.976;18.216;2024-01-30T04:44:52;30.60;;;15.90;;
57313;SDS011;53202;50.976;18.216;2024-01-30T04:45:53;28.10;;;15.30;;
57313;SDS011;53202;50.976;18.216;2024-01-30T04:46:54;25.60;;;14.70;;
57313;SDS011;53202;50.976;18.216;2024-01-30T04:47:59;26.50;;;13.40;;
57313;SDS011;53202;50.976;18.216;2024-01-30T04:49:00;23.80;;;14.00;;
57313;SDS011;53202;50.976;18.216;2024-01-30T04:50:01;24.90;;;15.10;;
57313;SDS011;53202;50.976;18.216;2024-01-30T04:51:03;27.90;;;14.30;;
57313;SDS011;53202;50.976;18.216;2024-01-30T04:52:05;32.50;;;14.70;;
57313;SDS011;53202;50.976;18.216;2024-01-30T04:53:06;47.10;;;17.00;;
57313;SDS011;53202;50.976;18.216;2024-01-30T04:54:08;27.20;;;14.90;;
57313;SDS011;53202;50.976;18.216;2024-01-30T04:55:09;27.20;;;14.90;;
57313;SDS011;53202;50.976;18.216;2024-01-30T04:56:10;27.40;;;16.00;;
57313;SDS011;53202;50.976;18.216;2024-01-30T04:57:11;29.90;;;15.70;;
57313;SDS011;53202;50.976;18.216;2024-01-30T04:58:12;28.40;;;16.50;;
57313;SDS011;53202;50.976;18.216;2024-01-30T04:59:13;33.50;;;17.20;;
57313;SDS011;53202;50.976;18.216;2024-01-30T05:00:14;27.80;;;16.30;;
57313;SDS011;53202;50.976;18.216;2024-01-30T05:01:16;28.20;;;14.70;;
57313;SDS011;53202;50.976;18.216;2024-01-30T05:02:17;24.30;;;15.80;;
57313;SDS011;53202;50.976;18.216;2024-01-30T05:03:19;25.40;;;14.70;;
57313;SDS011;53202;50.976;18.216;2024-01-30T05:04:20;28.90;;;15.10;;
57313;SDS011;53202;50.976;18.216;2024-01-30T05:05:22;30.80;;;14.60;;
57313;SDS011;53202;50.976;18.216;2024-01-30T05:06:25;30.40;;;16.70;;
57313;SDS011;53202;50.976;18.216;2024-01-30T05:07:26;25.70;;;15.40;;
57313;SDS011;53202;50.976;18.216;2024-01-30T05:08:27;28.40;;;15.40;;
57313;SDS011;53202;50.976;18.216;2024-01-30T05:09:29;30.00;;;17.10;;
57313;SDS011;53202;50.976;18.216;2024-01-30T05:10:30;29.70;;;16.40;;
57313;SDS011;53202;50.976;18.216;2024-01-30T05:11:31;27.00;;;15.40;;
57313;SDS011;53202;50.976;18.216;2024-01-30T05:12:32;31.50;;;16.60;;
57313;SDS011;53202;50.976;18.216;2024-01-30T05:13:33;27.50;;;15.60;;
57313;SDS011;53202;50.976;18.216;2024-01-30T05:14:34;24.70;;;14.40;;
57313;SDS011;53202;50.976;18.216;2024-01-30T05:15:35;26.60;;;15.20;;
57313;SDS011;53202;50.976;18.216;2024-01-30T05:16:36;31.00;;;15.00;;
57313;SDS011;53202;50.976;18.216;2024-01-30T05:17:37;25.50;;;14.60;;
57313;SDS011;53202;50.976;18.216;2024-01-30T05:18:38;28.20;;;15.30;;
57313;SDS011;53202;50.976;18.216;2024-01-30T05:19:39;28.10;;;15.40;;
57313;SDS011;53202;50.976;18.216;2024-01-30T05:20:40;26.30;;;14.70;;
57313;SDS011;53202;50.976;18.216;2024-01-30T05:21:41;25.80;;;13.80;;
57313;SDS011;53202;50.976;18.216;2024-01-30T05:22:42;25.00;;;14.30;;
57313;SDS011;53202;50.976;18.216;2024-01-30T05:23:45;27.60;;;14.60;;
57313;SDS011;53202;50.976;18.216;2024-01-30T05:24:46;24.20;;;14.60;;
57313;SDS011;53202;50.976;18.216;2024-01-30T05:25:47;24.60;;;13.70;;
57313;SDS011;53202;50.976;18.216;2024-01-30T05:26:47;26.70;;;13.70;;
57313;SDS011;53202;50.976;18.216;2024-01-30T05:27:49;32.30;;;14.80;;
57313;SDS011;53202;50.976;18.216;2024-01-30T05:28:50;22.30;;;13.40;;
57313;SDS011;53202;50.976;18.216;2024-01-30T05:29:51;25.80;;;14.30;;
57313;SDS011;53202;50.976;18.216;2024-01-30T05:30:52;25.80;;;14.70;;
57313;SDS011;53202;50.976;18.216;2024-01-30T05:31:52;24.60;;;13.20;;
57313;SDS011;53202;50.976;18.216;2024-01-30T05:32:53;27.80;;;15.00;;
57313;SDS011;53202;50.976;18.216;2024-01-30T05:33:54;26.40;;;13.90;;
57313;SDS011;53202;50.976;18.216;2024-01-30T05:34:55;35.60;;;15.50;;
57313;SDS011;53202;50.976;18.216;2024-01-30T05:35:56;24.60;;;14.70;;
57313;SDS011;53202;50.976;18.216;2024-01-30T05:36:57;22.90;;;13.80;;
57313;SDS011;53202;50.976;18.216;2024-01-30T05:37:58;28.90;;;14.00;;
57313;SDS011;53202;50.976;18.216;2024-01-30T05:38:59;21.60;;;13.80;;
57313;SDS011;53202;50.976;18.216;2024-01-30T05:40:00;28.60;;;14.40;;
57313;SDS011;53202;50.976;18.216;2024-01-30T05:41:01;26.90;;;14.00;;
57313;SDS011;53202;50.976;18.216;2024-01-30T05:42:02;20.10;;;13.10;;
57313;SDS011;53202;50.976;18.216;2024-01-30T05:43:03;23.30;;;13.20;;
57313;SDS011;53202;50.976;18.216;2024-01-30T05:44:04;25.20;;;12.70;;
57313;SDS011;53202;50.976;18.216;2024-01-30T05:45:05;23.40;;;13.00;;
57313;SDS011;53202;50.976;18.216;2024-01-30T05:46:09;29.00;;;14.60;;
57313;SDS011;53202;50.976;18.216;2024-01-30T05:47:10;22.40;;;13.40;;
57313;SDS011;53202;50.976;18.216;2024-01-30T05:48:12;24.50;;;13.80;;
57313;SDS011;53202;50.976;18.216;2024-01-30T05:49:13;23.40;;;13.20;;
57313;SDS011;53202;50.976;18.216;2024-01-30T05:50:14;22.50;;;13.00;;
57313;SDS011;53202;50.976;18.216;2024-01-30T05:51:15;27.80;;;14.80;;
57313;SDS011;53202;50.976;18.216;2024-01-30T05:52:16;25.40;;;13.50;;